Storoen, Sweden

5:40 AM CEST on August 02, 2014 (GMT +0200)
Kallax Air Base (ESPA) Elev 112 ft | 65.54 °N, 22.12 °E | Change Station

Current weather conditions updated 20 minutes ago

Clear
Clear
57 °F
Feels Like 57 °F
N
7
Wind Variable Wind from West

Today is forecast to be Cooler than yesterday.

Today
High -- | Low -- °F
--% Chance of Precip.
Yesterday
High -- | Low -- °F
Precip. -- in
3:19 AM 9:44 PM
Waxing Crescent, 32% visible
Pressure 29.89 in
Visibility -9999.0 miles
Clouds
Dew Point 55 °F
Humidity 94%
Rainfall 0.00 in
Snow Depth Not available.
UV Not available.
Pollen Not available.
Air Quality Not available.
Flu Activity Not available.
METAR ESPA 020320Z 28006KT CAVOK 14/13 Q1012

More Conditions Fewer Conditions

Pressure 29.89 in
Visibility -9999.0 miles
Clouds
Dew Point 55 °F
Humidity 94%
Rainfall 0.00 in
Snow Depth Not available.
UV Not available.
Pollen Not available.
Air Quality Not available.
Flu Activity Not available.
METAR ESPA 020320Z 28006KT CAVOK 14/13 Q1012

More Conditions Fewer Conditions

10-Day Weather Forecast

Almanac

Astronomy

Aug. 02, 2014 Rise Set
Actual Time 3:19 AM CEST 9:44 PM CEST
Civil Twilight 1:20 AM CEST 11:36 PM CEST
Nautical Twilight Sun does not rise Sun does not rise
Astronomical Twilight Sun does not rise Sun does not rise
Moon 12:19 PM CEST 9:50 PM CEST
Length of Visible Light 22h 16m
Length of Day
18h 25m
Tomorrow will be 7m 34s shorter.
Waxing Crescent, 32% of the Moon is Illuminated
Aug 1
Waxing Crescent
Aug 3
First Quarter
Aug 10
Full
Aug 17
Last Quarter
Aug 25
New

Yesterday's Extremes

Country Highs Country Lows

Community

WunderPhotos

Upload Photos

1,739,826 photos uploaded!

Nearby

Snow Depth

Not available.

Earthquake Activity

City Distance Mag. Time & Date
No recent earthquake activity has been reported nearby.
Minimum magnitude displayed is 2.5.

Coastal Water Temperatures

Place Temperature
No Stations Reporting

Nearby Weather Stations

Station Location Temp. Dew Point Humidity Wind Precip. Elev Updated Type
Palang, Puling 55.0 °F - - WSW  at  0.0 mph - / hr 10 ft 5:33 AM CEST Normal
Kalix 60.3 °F - - NNW  at  1.5 mph - / hr 197 ft 5:39 AM CEST Normal

Show More Stations Show Fewer Stations